Time;durP1;ratioP1;P1;durP2;ratioP2;P2;SDS_P1;SDS_P2;PMS_P1;PMS_P2;Temp;Humidity;BMP_temperature;BMP_pressure;BME280_temperature;BME280_humidity;BME280_pressure;Samples;Min_cycle;Max_cycle;Signal;HPM_P1;HPM_P2
2023/03/05 00:02:13;;;;;;;9.77;4.07;;;3.90;99.90;;;;;;5076982;28;20457;-55
2023/03/05 00:04:40;;;;;;;12.20;3.57;;;3.90;99.90;;;;;;5079812;28;20456;-57
2023/03/05 00:07:08;;;;;;;10.23;2.93;;;3.80;99.90;;;;;;5079740;28;20488;-59
2023/03/05 00:09:35;;;;;;;7.07;3.50;;;3.90;99.90;;;;;;5077556;28;20454;-60
2023/03/05 00:12:02;;;;;;;10.60;3.20;;;3.80;99.90;;;;;;5079443;28;20475;-60
2023/03/05 00:14:29;;;;;;;7.30;2.83;;;3.80;99.90;;;;;;5078555;28;20457;-60
2023/03/05 00:16:58;;;;;;;6.47;3.40;;;3.80;99.90;;;;;;5078407;28;20453;-60
2023/03/05 00:19:25;;;;;;;9.63;3.17;;;3.80;99.90;;;;;;5076872;28;20464;-59
2023/03/05 00:21:52;;;;;;;6.40;3.20;;;3.70;99.90;;;;;;5079499;28;20464;-60
2023/03/05 00:24:19;;;;;;;7.23;3.50;;;3.70;99.90;;;;;;5078635;28;20891;-59
2023/03/05 00:26:46;;;;;;;6.00;3.43;;;3.70;99.90;;;;;;5078996;28;20492;-59
2023/03/05 00:29:17;;;;;;;8.00;3.40;;;3.70;99.90;;;;;;5078380;28;20468;-55
2023/03/05 00:31:44;;;;;;;10.63;3.77;;;3.80;99.90;;;;;;5078897;28;20460;-59
2023/03/05 00:34:14;;;;;;;7.83;3.33;;;3.80;99.90;;;;;;5078161;28;20779;-60
2023/03/05 00:36:42;;;;;;;4.70;3.30;;;3.80;99.90;;;;;;5078361;28;20465;-60
2023/03/05 00:39:10;;;;;;;8.03;3.57;;;3.80;1.00;;;;;;5078815;28;20517;-59
2023/03/05 00:41:37;;;;;;;11.63;3.53;;;3.80;1.00;;;;;;5078430;28;20947;-57
2023/03/05 00:44:04;;;;;;;6.80;4.00;;;3.70;1.00;;;;;;5078056;28;20767;-59
2023/03/05 00:46:31;;;;;;;11.30;3.90;;;3.70;1.00;;;;;;5078188;28;20547;-60
2023/03/05 00:48:58;;;;;;;13.53;3.80;;;3.70;1.00;;;;;;5078114;28;20469;-57
2023/03/05 00:51:27;;;;;;;9.30;3.70;;;3.70;1.00;;;;;;5078123;28;20453;-56
2023/03/05 00:53:54;;;;;;;9.30;3.40;;;3.70;1.00;;;;;;5078425;28;20461;-57
2023/03/05 00:56:22;;;;;;;6.50;3.93;;;3.70;1.00;;;;;;5072401;28;20466;-59
2023/03/05 00:58:49;;;;;;;10.97;3.93;;;3.60;1.00;;;;;;5058296;28;20475;-57
2023/03/05 01:01:16;;;;;;;11.67;3.63;;;3.60;1.00;;;;;;5072260;28;20453;-60
2023/03/05 01:03:43;;;;;;;11.27;4.50;;;3.60;1.00;;;;;;5077526;28;20449;-57
2023/03/05 01:06:15;;;;;;;13.60;5.13;;;3.70;1.00;;;;;;5078077;28;20913;-60
2023/03/05 01:08:44;;;;;;;11.60;4.43;;;3.70;1.00;;;;;;5077887;28;20465;-59
2023/03/05 01:11:13;;;;;;;12.63;5.03;;;3.60;1.00;;;;;;5078080;28;20462;-58
2023/03/05 01:13:40;;;;;;;7.30;4.03;;;3.60;1.00;;;;;;5078120;28;20468;-59
2023/03/05 01:16:08;;;;;;;10.37;4.40;;;3.60;1.00;;;;;;5078149;28;20472;-59
2023/03/05 01:18:35;;;;;;;7.80;4.27;;;3.60;1.00;;;;;;5078101;28;20493;-60
2023/03/05 01:21:03;;;;;;;9.87;4.00;;;3.60;1.00;;;;;;5078524;28;20750;-59
2023/03/05 01:23:30;;;;;;;8.10;3.77;;;3.50;1.00;;;;;;5078209;28;20484;-57
2023/03/05 01:26:00;;;;;;;6.27;3.47;;;3.50;1.00;;;;;;5078410;28;20464;-60
2023/03/05 01:28:27;;;;;;;9.20;4.10;;;3.40;1.00;;;;;;5078653;28;20490;-60
2023/03/05 01:30:55;;;;;;;5.67;2.77;;;3.30;1.00;;;;;;5079322;28;20742;-59
2023/03/05 01:33:22;;;;;;;7.10;3.30;;;3.30;1.00;;;;;;5079168;28;20467;-61
2023/03/05 01:35:49;;;;;;;6.03;3.40;;;3.20;1.00;;;;;;5079045;28;20485;-56
2023/03/05 01:38:17;;;;;;;8.50;3.70;;;3.20;1.00;;;;;;5078441;28;20463;-60
2023/03/05 01:40:45;;;;;;;9.03;4.10;;;3.20;1.00;;;;;;5078907;28;20988;-59
2023/03/05 01:43:28;;;;;;;7.13;3.43;;;3.20;1.00;;;;;;5077746;28;20465;-60
2023/03/05 01:46:41;;;;;;;5.00;2.87;;;3.20;1.00;;;;;;5078345;28;20500;-60
2023/03/05 01:49:24;;;;;;;15.00;3.97;;;3.20;1.00;;;;;;5078724;28;20469;-59
2023/03/05 01:52:02;;;;;;;7.67;3.40;;;3.20;1.00;;;;;;5077680;28;20465;-61
2023/03/05 01:54:35;;;;;;;9.90;3.50;;;3.10;1.00;;;;;;5078567;28;20461;-60
2023/03/05 01:57:08;;;;;;;7.00;3.00;;;3.10;1.00;;;;;;5078707;28;20461;-61
2023/03/05 01:59:38;;;;;;;5.97;3.30;;;3.10;1.00;;;;;;5078884;28;20457;-61
2023/03/05 02:02:07;;;;;;;16.53;3.63;;;3.10;1.00;;;;;;5077600;28;20457;-58
2023/03/05 02:04:42;;;;;;;11.73;3.57;;;3.20;1.00;;;;;;5077291;28;20461;-61
2023/03/05 02:07:10;;;;;;;12.40;3.90;;;3.20;1.00;;;;;;5076310;28;20489;-60
2023/03/05 02:09:39;;;;;;;7.17;3.40;;;3.30;1.00;;;;;;5061213;28;20465;-60
2023/03/05 02:12:07;;;;;;;11.00;3.30;;;3.10;1.00;;;;;;5078624;28;20951;-60
2023/03/05 02:14:35;;;;;;;8.40;3.73;;;3.10;1.00;;;;;;5078307;28;20468;-58
2023/03/05 02:17:04;;;;;;;7.60;3.43;;;3.00;1.00;;;;;;5077505;28;20500;-60
2023/03/05 02:19:46;;;;;;;9.17;4.13;;;3.10;1.00;;;;;;5076724;28;20466;-61
2023/03/05 02:22:17;;;;;;;11.43;4.47;;;3.00;1.00;;;;;;5077563;28;20465;-61
2023/03/05 02:24:44;;;;;;;10.10;4.47;;;3.00;1.00;;;;;;5077417;28;20461;-57
2023/03/05 02:27:13;;;;;;;6.10;3.73;;;3.00;1.00;;;;;;5077893;28;20488;-60
2023/03/05 02:29:44;;;;;;;8.23;4.60;;;2.90;1.00;;;;;;5078431;28;20466;-61
2023/03/05 02:32:12;;;;;;;7.80;4.40;;;2.90;1.00;;;;;;5078018;28;20472;-61
2023/03/05 02:34:39;;;;;;;8.17;5.27;;;2.90;1.00;;;;;;5077896;28;20462;-59
2023/03/05 02:37:08;;;;;;;11.37;5.80;;;2.90;1.00;;;;;;5078324;28;20900;-61
2023/03/05 02:39:38;;;;;;;16.13;5.63;;;3.00;1.00;;;;;;5077413;28;20465;-60
2023/03/05 02:42:05;;;;;;;10.70;5.10;;;3.00;1.00;;;;;;5077925;28;20465;-61
2023/03/05 02:44:33;;;;;;;12.37;6.43;;;3.00;1.00;;;;;;5077894;28;20484;-58
2023/03/05 02:47:02;;;;;;;10.73;5.57;;;2.90;1.00;;;;;;5077812;28;20497;-58
2023/03/05 02:49:30;;;;;;;9.80;5.50;;;3.00;1.00;;;;;;5077908;28;20458;-61
2023/03/05 02:51:57;;;;;;;9.17;5.67;;;3.00;1.00;;;;;;5078208;28;20874;-61
2023/03/05 02:54:24;;;;;;;11.00;5.17;;;3.00;1.00;;;;;;5078000;28;20457;-60
2023/03/05 02:56:53;;;;;;;9.07;4.60;;;3.10;1.00;;;;;;5077813;28;20432;-60
2023/03/05 02:59:20;;;;;;;13.00;5.03;;;3.10;1.00;;;;;;5077186;28;20465;-60
2023/03/05 03:01:47;;;;;;;12.93;5.13;;;3.00;1.00;;;;;;5076765;28;20457;-59
2023/03/05 03:04:14;;;;;;;8.07;4.80;;;2.90;1.00;;;;;;5076790;28;20766;-59
2023/03/05 03:06:41;;;;;;;7.93;4.43;;;2.90;1.00;;;;;;5076701;28;20910;-59
2023/03/05 03:09:08;;;;;;;6.13;3.90;;;2.90;1.00;;;;;;5077641;28;20532;-61
2023/03/05 03:11:35;;;;;;;9.77;4.30;;;2.90;1.00;;;;;;5077060;28;20554;-60
2023/03/05 03:14:04;;;;;;;6.27;3.63;;;2.90;1.00;;;;;;5077221;28;20878;-60
2023/03/05 03:16:31;;;;;;;6.00;4.00;;;2.90;1.00;;;;;;5076257;28;20454;-62
2023/03/05 03:18:58;;;;;;;8.50;3.63;;;2.80;1.00;;;;;;5077459;28;20492;-62
2023/03/05 03:21:26;;;;;;;9.70;3.73;;;2.80;1.00;;;;;;5077649;28;20461;-61
2023/03/05 03:23:54;;;;;;;9.43;3.60;;;2.80;1.00;;;;;;5076934;28;20469;-59
2023/03/05 03:26:21;;;;;;;8.83;3.40;;;2.80;1.00;;;;;;5075543;28;20476;-59
2023/03/05 03:28:48;;;;;;;9.10;3.40;;;2.80;1.00;;;;;;5074801;28;20496;-60
2023/03/05 03:31:16;;;;;;;5.90;3.27;;;2.80;1.00;;;;;;5077548;28;20457;-61
2023/03/05 03:33:44;;;;;;;6.97;2.97;;;2.80;1.00;;;;;;5076280;28;20910;-60
2023/03/05 03:36:12;;;;;;;7.33;3.40;;;2.80;1.00;;;;;;5076865;28;20461;-59
2023/03/05 03:38:39;;;;;;;8.97;3.67;;;2.80;1.00;;;;;;5076801;28;20767;-61
2023/03/05 03:41:06;;;;;;;7.33;3.70;;;2.90;1.00;;;;;;5077657;28;20465;-60
2023/03/05 03:43:34;;;;;;;4.83;2.70;;;3.00;1.00;;;;;;5076620;28;20466;-61
2023/03/05 03:46:03;;;;;;;8.90;4.10;;;2.90;1.00;;;;;;5076206;28;20468;-57
2023/03/05 03:48:31;;;;;;;5.73;3.43;;;2.90;1.00;;;;;;5067462;28;20485;-61
2023/03/05 03:50:58;;;;;;;10.70;4.60;;;2.90;1.00;;;;;;5056904;28;20462;-59
2023/03/05 03:53:25;;;;;;;6.83;4.53;;;2.90;1.00;;;;;;5072446;28;20457;-61
2023/03/05 03:55:58;;;;;;;11.33;4.90;;;2.90;1.00;;;;;;5076715;28;20442;-62
2023/03/05 03:58:25;;;;;;;9.83;5.33;;;2.90;1.00;;;;;;5076279;28;20454;-61
2023/03/05 04:00:52;;;;;;;12.60;7.27;;;2.80;1.00;;;;;;5076806;28;20762;-61
2023/03/05 04:03:19;;;;;;;15.80;7.00;;;2.90;1.00;;;;;;5076724;28;20461;-61
2023/03/05 04:05:48;;;;;;;11.30;7.27;;;3.00;1.00;;;;;;5076905;28;20905;-62
2023/03/05 04:08:15;;;;;;;16.00;8.60;;;3.00;1.00;;;;;;5075866;28;20964;-62
2023/03/05 04:10:42;;;;;;;16.40;7.83;;;3.00;1.00;;;;;;5076964;28;20465;-62
2023/03/05 04:13:09;;;;;;;17.33;11.50;;;3.00;1.00;;;;;;5076247;28;20457;-62
2023/03/05 04:15:36;;;;;;;16.40;12.30;;;3.00;1.00;;;;;;5076680;28;20461;-59
2023/03/05 04:18:03;;;;;;;19.07;11.77;;;2.90;1.00;;;;;;5076102;28;20793;-60
2023/03/05 04:20:31;;;;;;;18.70;11.30;;;3.00;1.00;;;;;;5074024;28;20464;-61
2023/03/05 04:22:59;;;;;;;20.77;10.83;;;3.00;1.00;;;;;;5076012;28;20520;-62
2023/03/05 04:25:26;;;;;;;23.23;12.20;;;3.00;1.00;;;;;;5076709;28;20500;-62
2023/03/05 04:27:53;;;;;;;19.60;13.27;;;3.00;1.00;;;;;;5076821;28;20488;-61
2023/03/05 04:30:20;;;;;;;25.63;12.30;;;3.00;1.00;;;;;;5076368;28;20468;-62
2023/03/05 04:32:48;;;;;;;18.33;10.23;;;3.00;1.00;;;;;;5076575;28;20473;-62
2023/03/05 04:35:15;;;;;;;22.17;12.37;;;3.00;1.00;;;;;;5076179;28;20551;-63
2023/03/05 04:37:43;;;;;;;16.83;11.00;;;3.10;1.00;;;;;;5076661;28;20544;-63
2023/03/05 04:40:13;;;;;;;17.90;10.43;;;3.10;1.00;;;;;;5075271;28;20454;-63
2023/03/05 04:42:43;;;;;;;20.47;10.43;;;3.00;1.00;;;;;;5077812;28;21039;-63
2023/03/05 04:45:11;;;;;;;16.30;10.83;;;3.00;1.00;;;;;;5080033;28;20641;-62
2023/03/05 04:47:38;;;;;;;16.60;10.27;;;3.00;1.00;;;;;;5080181;28;20775;-62
2023/03/05 04:50:07;;;;;;;20.33;11.97;;;3.00;1.00;;;;;;5079570;28;20461;-61
2023/03/05 04:52:34;;;;;;;17.23;10.97;;;3.00;1.00;;;;;;5079661;28;20875;-62
2023/03/05 04:55:01;;;;;;;17.60;11.60;;;3.00;1.00;;;;;;5079776;28;20747;-61
2023/03/05 04:57:29;;;;;;;18.23;11.40;;;3.00;1.00;;;;;;5079671;28;20468;-62
2023/03/05 04:59:56;;;;;;;19.00;12.80;;;3.00;1.00;;;;;;5079321;28;20465;-62
2023/03/05 05:02:24;;;;;;;18.20;12.33;;;2.90;1.00;;;;;;5079491;28;20464;-62
2023/03/05 05:04:52;;;;;;;19.00;13.77;;;2.90;1.00;;;;;;5079893;28;20464;-63
2023/03/05 05:07:20;;;;;;;24.20;12.60;;;2.90;1.00;;;;;;5079381;28;20462;-62
2023/03/05 05:09:47;;;;;;;23.43;12.60;;;2.90;1.00;;;;;;5079808;28;20481;-62
2023/03/05 05:12:14;;;;;;;18.30;14.60;;;2.90;2.20;;;;;;5079712;28;20465;-62
2023/03/05 05:14:42;;;;;;;22.47;14.13;;;2.90;23.30;;;;;;5079305;28;20563;-63
2023/03/05 05:17:09;;;;;;;23.10;14.80;;;2.90;43.50;;;;;;5079731;28;20496;-62
2023/03/05 05:19:36;;;;;;;28.60;15.83;;;2.90;62.20;;;;;;5079339;28;20461;-62
2023/03/05 05:22:04;;;;;;;27.13;16.53;;;2.90;65.50;;;;;;5078807;28;20462;-62
2023/03/05 05:24:31;;;;;;;25.90;16.00;;;2.90;59.90;;;;;;5079017;28;20858;-60
2023/03/05 05:26:58;;;;;;;28.10;18.33;;;2.80;59.10;;;;;;5079199;28;20469;-60
2023/03/05 05:29:25;;;;;;;32.23;16.77;;;2.80;51.50;;;;;;5078569;28;20498;-61
2023/03/05 05:31:55;;;;;;;29.10;17.60;;;2.90;78.90;;;;;;5079442;28;20469;-64
2023/03/05 05:34:23;;;;;;;28.27;17.00;;;2.90;95.60;;;;;;5079166;28;20567;-63
2023/03/05 05:36:51;;;;;;;28.60;16.90;;;2.80;99.90;;;;;;5079483;28;20752;-64
2023/03/05 05:39:18;;;;;;;35.50;15.40;;;2.80;99.90;;;;;;5079005;28;20458;-64
2023/03/05 05:41:45;;;;;;;23.00;14.40;;;2.80;99.90;;;;;;5078353;28;20464;-64
2023/03/05 05:44:12;;;;;;;20.67;12.73;;;2.80;99.90;;;;;;5078485;28;20465;-63
2023/03/05 05:46:39;;;;;;;17.83;10.40;;;2.80;99.90;;;;;;5079305;28;20443;-64
2023/03/05 05:49:08;;;;;;;25.80;12.47;;;2.80;99.90;;;;;;5078471;28;20782;-64
2023/03/05 05:51:35;;;;;;;21.00;11.80;;;2.70;99.90;;;;;;5078811;28;20465;-64
2023/03/05 05:54:02;;;;;;;21.50;11.83;;;2.70;99.90;;;;;;5077836;28;20458;-64
2023/03/05 05:56:29;;;;;;;21.43;11.97;;;2.70;99.90;;;;;;5078300;28;20560;-64
2023/03/05 05:58:56;;;;;;;25.53;13.50;;;2.70;99.90;;;;;;5077589;28;20465;-64
2023/03/05 06:01:25;;;;;;;26.73;12.80;;;2.80;99.90;;;;;;5076150;28;20465;-64
2023/03/05 06:03:52;;;;;;;23.03;13.10;;;2.80;99.90;;;;;;5077566;28;20472;-64
2023/03/05 06:06:23;;;;;;;17.57;10.93;;;2.80;99.90;;;;;;5078127;28;20465;-64
2023/03/05 06:08:51;;;;;;;21.40;11.83;;;2.80;99.90;;;;;;5078515;28;20801;-64
2023/03/05 06:11:19;;;;;;;21.47;14.60;;;2.80;99.90;;;;;;5078370;28;20733;-63
2023/03/05 06:13:46;;;;;;;21.20;12.80;;;2.90;99.90;;;;;;5077990;28;20461;-63
2023/03/05 06:16:17;;;;;;;20.63;12.40;;;2.90;99.90;;;;;;5078603;28;20461;-63
2023/03/05 06:18:44;;;;;;;21.00;11.07;;;2.80;99.90;;;;;;5078117;28;20941;-63
2023/03/05 06:21:14;;;;;;;14.80;9.10;;;2.80;99.90;;;;;;5077625;28;20453;-64
2023/03/05 06:23:42;;;;;;;13.87;8.43;;;2.80;99.90;;;;;;5078212;28;20496;-64
2023/03/05 06:26:12;;;;;;;13.77;7.57;;;2.70;99.90;;;;;;5077358;28;20465;-64
2023/03/05 06:28:40;;;;;;;12.27;7.70;;;2.70;99.90;;;;;;5077903;28;20592;-64
2023/03/05 06:31:10;;;;;;;11.03;7.30;;;2.70;99.90;;;;;;5076924;28;20469;-64
2023/03/05 06:33:38;;;;;;;15.07;8.60;;;2.70;1.00;;;;;;5061856;28;20464;-64
2023/03/05 06:36:08;;;;;;;17.53;8.17;;;2.70;1.00;;;;;;5077518;28;20468;-64
2023/03/05 06:38:35;;;;;;;15.33;7.40;;;2.80;1.00;;;;;;5077453;28;20548;-64
2023/03/05 06:41:05;;;;;;;10.20;6.53;;;2.80;1.00;;;;;;5077568;28;20780;-64
2023/03/05 06:43:34;;;;;;;10.77;6.03;;;2.80;1.00;;;;;;5076311;28;20515;-63
2023/03/05 06:46:04;;;;;;;11.70;6.63;;;2.80;99.90;;;;;;5077109;28;20556;-60
2023/03/05 06:48:32;;;;;;;10.13;5.73;;;2.90;99.90;;;;;;5077294;28;20555;-62
2023/03/05 06:50:59;;;;;;;14.80;6.77;;;2.90;99.90;;;;;;5077421;28;20465;-62
2023/03/05 06:53:26;;;;;;;12.60;7.00;;;2.90;99.90;;;;;;5077409;28;20473;-61
2023/03/05 06:55:54;;;;;;;11.67;5.90;;;2.90;99.90;;;;;;5077868;28;20882;-62
2023/03/05 06:58:22;;;;;;;11.43;6.30;;;2.80;99.90;;;;;;5076999;28;20918;-62
2023/03/05 07:00:49;;;;;;;14.00;5.57;;;2.90;99.90;;;;;;5076438;28;20461;-60
2023/03/05 07:03:16;;;;;;;11.33;5.27;;;2.80;99.90;;;;;;5076528;28;20461;-60
2023/03/05 07:05:44;;;;;;;12.23;5.53;;;2.80;99.90;;;;;;5077302;28;20780;-61
2023/03/05 07:08:11;;;;;;;7.87;5.00;;;2.80;99.90;;;;;;5076121;28;20464;-62
2023/03/05 07:10:40;;;;;;;9.20;4.73;;;2.90;99.90;;;;;;5077484;28;20457;-62
2023/03/05 07:13:07;;;;;;;9.73;6.07;;;3.00;99.90;;;;;;5076787;28;20746;-62
2023/03/05 07:15:39;;;;;;;17.37;6.83;;;3.00;99.90;;;;;;5077039;28;20461;-62
2023/03/05 07:18:06;;;;;;;10.47;5.70;;;3.00;99.90;;;;;;5076144;28;20498;-61
2023/03/05 07:20:34;;;;;;;11.00;6.30;;;3.10;99.90;;;;;;5077390;28;20461;-62
2023/03/05 07:23:02;;;;;;;15.73;6.60;;;3.10;99.90;;;;;;5076714;28;20465;-62
2023/03/05 07:25:29;;;;;;;13.93;7.10;;;3.10;99.60;;;;;;5077349;28;20487;-62
2023/03/05 07:27:56;;;;;;;17.30;8.63;;;3.10;89.60;;;;;;5076559;28;20432;-62
2023/03/05 07:30:24;;;;;;;12.50;8.70;;;3.20;57.40;;;;;;5076051;28;20457;-62
2023/03/05 07:32:52;;;;;;;14.13;8.90;;;3.10;25.50;;;;;;5075997;28;20766;-62
2023/03/05 07:35:19;;;;;;;14.50;8.33;;;3.20;23.20;;;;;;5077248;28;20480;-62
2023/03/05 07:37:46;;;;;;;15.03;7.00;;;3.20;1.50;;;;;;5077345;28;20557;-62
2023/03/05 07:40:14;;;;;;;16.83;6.00;;;3.20;1.00;;;;;;5076340;28;20524;-61
2023/03/05 07:42:41;;;;;;;7.23;4.60;;;3.10;1.00;;;;;;5077462;28;20468;-61
2023/03/05 07:45:09;;;;;;;8.67;4.43;;;3.20;1.00;;;;;;5076689;28;20465;-62
2023/03/05 07:47:36;;;;;;;9.17;4.30;;;3.20;1.00;;;;;;5077516;28;20464;-62
2023/03/05 07:50:06;;;;;;;11.23;4.30;;;3.00;1.00;;;;;;5076155;28;20489;-62
2023/03/05 07:52:33;;;;;;;11.57;4.40;;;3.10;1.00;;;;;;5076547;28;20567;-62
2023/03/05 07:55:00;;;;;;;10.20;4.27;;;3.30;1.00;;;;;;5057210;28;20454;-62
2023/03/05 07:57:27;;;;;;;8.20;4.17;;;3.40;1.00;;;;;;5056967;28;20467;-61
2023/03/05 07:59:55;;;;;;;12.00;4.73;;;3.50;1.00;;;;;;5057782;28;20905;-62
2023/03/05 08:02:22;;;;;;;12.33;5.00;;;3.50;1.00;;;;;;5076500;28;20770;-62
2023/03/05 08:04:49;;;;;;;10.07;5.60;;;3.50;1.00;;;;;;5075557;28;20454;-62
2023/03/05 08:07:17;;;;;;;14.80;7.00;;;3.60;1.00;;;;;;5057520;28;20462;-62
2023/03/05 08:09:45;;;;;;;11.43;8.13;;;3.50;1.00;;;;;;5066819;28;20481;-62
2023/03/05 08:12:12;;;;;;;13.33;8.20;;;3.60;1.00;;;;;;5069729;28;20770;-62
2023/03/05 08:14:39;;;;;;;19.30;9.20;;;3.60;1.00;;;;;;5072464;28;20614;-62
2023/03/05 08:17:07;;;;;;;17.57;11.03;;;3.70;1.00;;;;;;5072335;28;20763;-62
2023/03/05 08:19:34;;;;;;;22.27;13.30;;;3.80;1.00;;;;;;5073295;28;20458;-62
2023/03/05 08:22:01;;;;;;;25.50;12.33;;;3.80;1.00;;;;;;5074181;28;20465;-62
2023/03/05 08:24:30;;;;;;;24.83;10.83;;;3.90;1.00;;;;;;5075186;28;20878;-62
2023/03/05 08:26:58;;;;;;;23.73;12.13;;;4.00;1.00;;;;;;5075800;28;20461;-62
2023/03/05 08:29:25;;;;;;;17.17;11.60;;;4.00;1.00;;;;;;5076141;28;20481;-62
2023/03/05 08:31:53;;;;;;;20.30;12.03;;;4.10;1.00;;;;;;5071812;28;20453;-61
2023/03/05 08:34:21;;;;;;;18.17;11.30;;;4.20;1.00;;;;;;5072811;28;20558;-63
2023/03/05 08:36:49;;;;;;;15.07;9.53;;;4.20;1.00;;;;;;5074936;28;20487;-62
2023/03/05 08:39:16;;;;;;;15.40;7.70;;;4.20;1.00;;;;;;5078612;28;20904;-61
2023/03/05 08:41:45;;;;;;;8.00;6.37;;;4.10;1.00;;;;;;5078431;28;20472;-63
2023/03/05 08:44:12;;;;;;;11.20;6.70;;;4.10;1.00;;;;;;5076933;28;20492;-62
2023/03/05 08:46:39;;;;;;;11.73;6.80;;;4.10;1.00;;;;;;5076498;28;20518;-63
2023/03/05 08:49:07;;;;;;;11.37;6.17;;;4.10;1.00;;;;;;5078197;28;20482;-61
2023/03/05 08:51:34;;;;;;;10.03;6.30;;;4.10;1.00;;;;;;5076707;28;20467;-63
2023/03/05 08:54:05;;;;;;;10.77;6.77;;;4.00;1.00;;;;;;5075927;28;20518;-62
2023/03/05 08:56:33;;;;;;;10.60;7.30;;;4.10;1.00;;;;;;5075649;28;20578;-61
2023/03/05 08:59:02;;;;;;;19.67;8.13;;;4.20;1.00;;;;;;5077496;28;20457;-61
2023/03/05 09:01:30;;;;;;;9.73;6.57;;;4.10;1.00;;;;;;5077616;28;20523;-61
2023/03/05 09:03:58;;;;;;;11.80;5.70;;;4.00;1.00;;;;;;5077204;28;20515;-60
2023/03/05 09:06:26;;;;;;;9.10;5.10;;;3.80;1.00;;;;;;5075572;28;20465;-59
2023/03/05 09:08:54;;;;;;;12.63;5.70;;;3.70;1.00;;;;;;5058969;28;20486;-60
2023/03/05 09:11:21;;;;;;;9.80;6.13;;;3.70;1.00;;;;;;5058088;28;20462;-59
2023/03/05 09:13:48;;;;;;;7.67;4.70;;;3.80;1.00;;;;;;5069765;28;20457;-61
2023/03/05 09:16:19;;;;;;;7.43;5.10;;;3.80;1.00;;;;;;5076924;28;20469;-60
2023/03/05 09:18:46;;;;;;;8.87;5.20;;;3.80;1.00;;;;;;5076938;28;20489;-60
2023/03/05 09:21:15;;;;;;;7.23;5.80;;;3.70;1.00;;;;;;5076710;28;20466;-62
2023/03/05 09:23:45;;;;;;;8.20;6.67;;;3.60;1.00;;;;;;5076664;28;20472;-62
2023/03/05 09:26:14;;;;;;;13.93;8.10;;;3.50;1.00;;;;;;5078534;28;20493;-62
2023/03/05 09:28:42;;;;;;;8.23;6.67;;;3.70;1.00;;;;;;5077227;28;20556;-62
2023/03/05 09:31:10;;;;;;;9.83;6.80;;;3.60;1.00;;;;;;5078732;28;20468;-62
2023/03/05 09:33:39;;;;;;;9.73;6.10;;;3.70;1.00;;;;;;5078131;28;20782;-63
2023/03/05 09:36:21;;;;;;;17.00;7.93;;;3.50;1.00;;;;;;5078600;28;20465;-63
2023/03/05 09:38:48;;;;;;;17.93;7.33;;;3.40;1.00;;;;;;5079109;28;20457;-63
2023/03/05 09:41:22;;;;;;;11.97;7.33;;;3.50;1.00;;;;;;5078505;28;20980;-64
2023/03/05 09:44:02;;;;;;;14.60;9.77;;;3.50;1.00;;;;;;5078351;28;20465;-64
2023/03/05 09:46:37;;;;;;;10.97;7.40;;;3.60;1.00;;;;;;5078896;28;20460;-64
2023/03/05 09:49:15;;;;;;;17.03;8.67;;;3.70;14.00;;;;;;5079118;28;20507;-64
2023/03/05 09:51:45;;;;;;;14.43;8.60;;;3.80;8.50;;;;;;5078508;28;20890;-64
2023/03/05 09:54:16;;;;;;;14.37;10.10;;;3.90;14.00;;;;;;5078558;28;20801;-64
2023/03/05 09:56:46;;;;;;;17.80;10.07;;;4.00;3.30;;;;;;5077989;28;20465;-65
2023/03/05 09:59:22;;;;;;;16.17;9.47;;;4.00;1.00;;;;;;5077936;28;20476;-65
2023/03/05 10:01:52;;;;;;;16.60;8.30;;;4.00;1.00;;;;;;5077867;28;20461;-64
2023/03/05 10:04:25;;;;;;;11.63;9.23;;;4.10;1.00;;;;;;5078201;28;20468;-65
2023/03/05 10:06:58;;;;;;;13.00;8.97;;;4.00;1.00;;;;;;5078373;28;20762;-65
2023/03/05 10:09:40;;;;;;;11.50;8.50;;;4.00;1.00;;;;;;5071341;28;20508;-65
2023/03/05 10:12:14;;;;;;;10.37;9.23;;;4.00;1.00;;;;;;5067513;28;20550;-65
2023/03/05 10:14:42;;;;;;;12.00;9.00;;;3.80;1.00;;;;;;5077579;28;20461;-65
2023/03/05 10:17:32;;;;;;;14.73;9.70;;;3.80;1.00;;;;;;5076437;28;20801;-65
2023/03/05 10:20:27;;;;;;;16.17;9.37;;;3.90;1.00;;;;;;5073577;28;20511;-65
2023/03/05 10:23:06;;;;;;;16.30;10.93;;;3.60;2.40;;;;;;5065289;28;20472;-65
2023/03/05 10:25:50;;;;;;;17.90;11.50;;;3.60;34.20;;;;;;5057766;28;20489;-66
2023/03/05 10:28:21;;;;;;;19.90;12.00;;;3.60;56.40;;;;;;5057157;28;20458;-66
2023/03/05 10:31:04;;;;;;;17.97;12.23;;;3.70;95.50;;;;;;5075385;28;20485;-66
2023/03/05 10:33:42;;;;;;;20.03;13.60;;;3.80;99.90;;;;;;5077354;28;20514;-66
2023/03/05 10:36:26;;;;;;;26.37;13.10;;;3.90;99.90;;;;;;5076281;28;20468;-66
2023/03/05 10:39:23;;;;;;;19.23;13.47;;;4.00;99.90;;;;;;5076214;28;20754;-66
2023/03/05 10:42:01;;;;;;;15.50;12.40;;;4.10;98.10;;;;;;5073432;28;20466;-66
2023/03/05 10:44:36;;;;;;;20.33;11.87;;;4.00;1.00;;;;;;5073306;28;20468;-66
2023/03/05 10:47:12;;;;;;;17.47;12.67;;;4.20;1.00;;;;;;5072904;28;20468;-66
2023/03/05 10:49:48;;;;;;;14.63;10.80;;;4.50;1.00;;;;;;5074997;28;20504;-66
2023/03/05 10:52:18;;;;;;;15.83;12.13;;;4.70;1.00;;;;;;5070807;28;20453;-67
2023/03/05 10:54:45;;;;;;;19.10;12.03;;;4.70;1.00;;;;;;5074560;28;20460;-66
2023/03/05 10:57:18;;;;;;;15.90;12.30;;;4.80;1.00;;;;;;5076023;28;20973;-66
2023/03/05 10:59:49;;;;;;;15.50;11.80;;;4.80;1.00;;;;;;5075507;28;20453;-66
2023/03/05 11:02:17;;;;;;;15.60;11.67;;;4.60;1.00;;;;;;5076125;28;20466;-65
2023/03/05 11:04:46;;;;;;;17.37;11.43;;;4.80;1.00;;;;;;5075622;28;20532;-65
2023/03/05 11:07:37;;;;;;;17.10;12.60;;;5.00;1.00;;;;;;5063981;28;20556;-65
2023/03/05 11:10:20;;;;;;;12.53;10.30;;;5.30;1.00;;;;;;5075988;28;20493;-65
2023/03/05 11:12:47;;;;;;;17.83;12.43;;;5.60;1.00;;;;;;5076640;28;20518;-65
2023/03/05 11:15:28;;;;;;;13.83;11.40;;;5.80;1.00;;;;;;5070514;28;20500;-66
2023/03/05 11:18:15;;;;;;;13.13;11.30;;;6.10;1.00;;;;;;5077219;28;20496;-65
2023/03/05 11:20:42;;;;;;;15.40;12.00;;;6.10;1.00;;;;;;5076727;28;20479;-65
2023/03/05 11:23:14;;;;;;;15.93;11.23;;;6.30;1.00;;;;;;5076263;28;20464;-66
2023/03/05 11:26:00;;;;;;;11.27;9.77;;;6.40;1.00;;;;;;5075855;28;20419;-66
2023/03/05 11:28:30;;;;;;;12.77;9.00;;;6.00;1.00;;;;;;5073212;28;20453;-67
2023/03/05 11:31:03;;;;;;;13.40;9.97;;;5.80;1.00;;;;;;5075530;28;20762;-67
2023/03/05 11:33:31;;;;;;;13.03;10.07;;;5.30;1.00;;;;;;5071978;28;20552;-67
2023/03/05 11:36:25;;;;;;;11.57;10.47;;;5.10;1.00;;;;;;5074509;28;20453;-67
2023/03/05 11:38:58;;;;;;;12.67;10.87;;;5.00;1.00;;;;;;5072897;28;20461;-67
2023/03/05 11:41:31;;;;;;;12.97;11.40;;;5.00;1.00;;;;;;5072507;28;20845;-67
2023/03/05 11:44:02;;;;;;;14.43;10.60;;;4.80;1.00;;;;;;5074837;28;20465;-65
2023/03/05 11:46:41;;;;;;;12.57;9.70;;;4.70;1.00;;;;;;5074744;28;20432;-65
2023/03/05 11:49:11;;;;;;;13.33;11.30;;;4.50;1.00;;;;;;5073803;28;20465;-65
2023/03/05 11:51:44;;;;;;;12.70;10.33;;;4.50;1.00;;;;;;5073915;28;20794;-65
2023/03/05 11:54:19;;;;;;;11.93;10.73;;;4.30;1.00;;;;;;5076629;28;20474;-66
2023/03/05 11:56:47;;;;;;;12.40;10.27;;;4.50;1.00;;;;;;5076944;28;20465;-65
2023/03/05 11:59:18;;;;;;;12.10;9.80;;;4.40;1.00;;;;;;5078876;28;20530;-66
2023/03/05 12:01:47;;;;;;;11.97;9.83;;;4.20;1.00;;;;;;5079287;28;20449;-66
2023/03/05 12:04:16;;;;;;;15.40;12.13;;;4.10;1.00;;;;;;5078506;28;20817;-66
2023/03/05 12:06:46;;;;;;;14.53;11.83;;;3.90;1.00;;;;;;5078773;28;20463;-66
2023/03/05 12:09:23;;;;;;;15.33;11.73;;;3.80;1.00;;;;;;5079558;28;20457;-66
2023/03/05 12:11:56;;;;;;;16.27;12.37;;;3.80;1.00;;;;;;5079018;28;20890;-66
2023/03/05 12:14:27;;;;;;;16.50;11.67;;;4.00;1.00;;;;;;5078171;28;20484;-64
2023/03/05 12:17:04;;;;;;;14.10;11.10;;;3.90;1.00;;;;;;5078388;28;20464;-64
2023/03/05 12:19:40;;;;;;;15.23;11.10;;;3.80;1.00;;;;;;5075925;28;20483;-65
2023/03/05 12:22:17;;;;;;;15.03;11.60;;;3.60;1.00;;;;;;5079088;28;20479;-65
2023/03/05 12:24:46;;;;;;;15.83;12.33;;;3.30;1.00;;;;;;5073344;28;20485;-66
2023/03/05 12:27:16;;;;;;;14.20;11.10;;;3.30;1.00;;;;;;5076269;28;20907;-66
2023/03/05 12:29:49;;;;;;;15.47;13.20;;;3.40;1.00;;;;;;5074764;28;20464;-66
2023/03/05 12:32:55;;;;;;;16.47;12.60;;;3.60;1.00;;;;;;5075815;28;20494;-65
2023/03/05 12:35:25;;;;;;;17.27;13.43;;;3.80;1.00;;;;;;5076988;28;20795;-66
2023/03/05 12:38:30;;;;;;;15.47;12.83;;;4.20;1.00;;;;;;5076457;28;20453;-67
2023/03/05 12:41:41;;;;;;;15.17;11.57;;;4.50;29.70;;;;;;5074400;28;20457;-67
2023/03/05 12:44:25;;;;;;;13.90;11.77;;;4.70;1.00;;;;;;5074394;28;20763;-67
2023/03/05 12:47:18;;;;;;;14.67;12.13;;;5.00;1.00;;;;;;5068833;28;20484;-67
2023/03/05 12:49:47;;;;;;;19.50;11.60;;;5.10;1.00;;;;;;5074996;28;20457;-68
2023/03/05 12:52:22;;;;;;;17.00;11.43;;;5.70;1.00;;;;;;5074954;28;20461;-69
2023/03/05 12:55:02;;;;;;;11.93;10.73;;;5.80;1.00;;;;;;5073681;28;20813;-65
2023/03/05 12:57:31;;;;;;;11.00;9.90;;;6.30;1.00;;;;;;5075293;28;20457;-65
2023/03/05 13:00:05;;;;;;;14.87;11.80;;;6.30;1.00;;;;;;5070450;28;20910;-65
2023/03/05 13:02:36;;;;;;;11.73;10.63;;;6.10;1.00;;;;;;5074405;28;20461;-65
2023/03/05 13:05:07;;;;;;;12.00;10.80;;;6.10;1.00;;;;;;5075414;28;20462;-65
2023/03/05 13:07:35;;;;;;;11.50;10.30;;;5.70;1.00;;;;;;5076560;28;20894;-64
2023/03/05 13:10:02;;;;;;;11.23;10.13;;;5.80;1.00;;;;;;5075710;28;20466;-64